NPT2L EGNX-EGAA
Flight info
| Callsign | NPT2L |
|---|---|
| Flight time | N/A |
| Altitude | 24000 |
| Route | TNT Q4 VABKA/N0397F280 UL8 BILVO UP6 TUPEM DCT REMSI DCT UVPOK M147 ROBOP M146 IPSET P6 BELZU |
| Aircraft | B738/M-SDE2E3FGHIRWXY/LB1 |
Departure
| Time | 2026-04-30 07:43 |
|---|---|
| Airport | East Midlands Airport (EGNX) |
Arrival
| Time | N/A |
|---|---|
| Airport | Belfast International Airport (EGAA) |
| Time | Latitude | Longitude | Altitude | Speed | Heading |
|---|---|---|---|---|---|
| 2026-04-30 07:03 | 52.82829 | -1.31964 | 300 ft | 0 kts | 178° |
| 2026-04-30 07:26 | 52.82841 | -1.31965 | 300 ft | 4 kts | 178° |
| 2026-04-30 07:26 | 52.82856 | -1.31966 | 300 ft | 4 kts | 182° |
| 2026-04-30 07:26 | 52.82877 | -1.31956 | 302 ft | 4 kts | 242° |
| 2026-04-30 07:27 | 52.82881 | -1.31923 | 300 ft | 4 kts | 268° |
| 2026-04-30 07:27 | 52.82881 | -1.31894 | 302 ft | 0 kts | 268° |
| 2026-04-30 07:32 | 52.82881 | -1.31898 | 300 ft | 2 kts | 269° |
| 2026-04-30 07:33 | 52.82879 | -1.31990 | 300 ft | 15 kts | 268° |
| 2026-04-30 07:33 | 52.82892 | -1.32145 | 301 ft | 15 kts | 319° |
| 2026-04-30 07:33 | 52.82937 | -1.32279 | 300 ft | 15 kts | 272° |
| 2026-04-30 07:33 | 52.82933 | -1.32444 | 300 ft | 14 kts | 268° |
| 2026-04-30 07:34 | 52.82934 | -1.32603 | 300 ft | 14 kts | 269° |
| 2026-04-30 07:34 | 52.82932 | -1.32746 | 300 ft | 13 kts | 268° |
| 2026-04-30 07:34 | 52.82930 | -1.32888 | 301 ft | 13 kts | 267° |
| 2026-04-30 07:34 | 52.82927 | -1.33029 | 301 ft | 12 kts | 269° |
| 2026-04-30 07:35 | 52.82924 | -1.33169 | 303 ft | 12 kts | 269° |
| 2026-04-30 07:35 | 52.82922 | -1.33300 | 303 ft | 12 kts | 270° |
| 2026-04-30 07:35 | 52.82922 | -1.33433 | 307 ft | 11 kts | 268° |
| 2026-04-30 07:35 | 52.82919 | -1.33565 | 303 ft | 12 kts | 265° |
| 2026-04-30 07:36 | 52.82915 | -1.33695 | 303 ft | 11 kts | 268° |
| 2026-04-30 07:36 | 52.82913 | -1.33817 | 304 ft | 11 kts | 268° |
| 2026-04-30 07:36 | 52.82911 | -1.33941 | 303 ft | 11 kts | 268° |
| 2026-04-30 07:36 | 52.82908 | -1.34075 | 301 ft | 13 kts | 268° |
| 2026-04-30 07:37 | 52.82907 | -1.34223 | 300 ft | 13 kts | 270° |
| 2026-04-30 07:37 | 52.82908 | -1.34362 | 304 ft | 12 kts | 269° |
| 2026-04-30 07:37 | 52.82905 | -1.34503 | 306 ft | 13 kts | 268° |
| 2026-04-30 07:37 | 52.82903 | -1.34648 | 302 ft | 13 kts | 269° |
| 2026-04-30 07:38 | 52.82900 | -1.34790 | 304 ft | 12 kts | 268° |
| 2026-04-30 07:38 | 52.82915 | -1.34913 | 305 ft | 7 kts | 310° |
| 2026-04-30 07:38 | 52.82947 | -1.34935 | 305 ft | 0 kts | 357° |
| 2026-04-30 07:40 | 52.82948 | -1.34935 | 305 ft | 2 kts | 358° |
| 2026-04-30 07:41 | 52.83029 | -1.34932 | 304 ft | 17 kts | 15° |
| 2026-04-30 07:41 | 52.83064 | -1.34772 | 301 ft | 0 kts | 86° |
| 2026-04-30 07:41 | 52.83064 | -1.34771 | 301 ft | 0 kts | 86° |
| 2026-04-30 07:41 | 52.83064 | -1.34769 | 301 ft | 0 kts | 86° |
| 2026-04-30 07:42 | 52.83068 | -1.34610 | 301 ft | 47 kts | 88° |
| 2026-04-30 07:42 | 52.83081 | -1.33868 | 303 ft | 110 kts | 88° |
| 2026-04-30 07:42 | 52.83114 | -1.32300 | 418 ft | 161 kts | 87° |
| 2026-04-30 07:43 | 52.83151 | -1.30390 | 1098 ft | 179 kts | 86° |
| 2026-04-30 07:43 | 52.83162 | -1.28958 | 1479 ft | 193 kts | 95° |
| 2026-04-30 07:43 | 52.82908 | -1.26184 | 2700 ft | 194 kts | 93° |
| 2026-04-30 07:43 | 52.83246 | -1.23899 | 3026 ft | 226 kts | 59° |
| 2026-04-30 07:44 | 52.84606 | -1.22264 | 3537 ft | 264 kts | 24° |
| 2026-04-30 07:44 | 52.85874 | -1.22024 | 4040 ft | 282 kts | 358° |
| 2026-04-30 07:44 | 52.87692 | -1.23253 | 4960 ft | 295 kts | 322° |
| 2026-04-30 07:44 | 52.88928 | -1.25909 | 5688 ft | 299 kts | 293° |
| 2026-04-30 07:45 | 52.89762 | -1.29046 | 5977 ft | 299 kts | 295° |
| 2026-04-30 07:45 | 52.90774 | -1.32076 | 5989 ft | 302 kts | 301° |
| 2026-04-30 07:45 | 52.91908 | -1.35013 | 6130 ft | 307 kts | 303° |
| 2026-04-30 07:45 | 52.93118 | -1.37952 | 7006 ft | 307 kts | 304° |
| 2026-04-30 07:46 | 52.94343 | -1.40846 | 7991 ft | 307 kts | 305° |
| 2026-04-30 07:46 | 52.95591 | -1.43758 | 8817 ft | 313 kts | 305° |
| 2026-04-30 07:46 | 52.96862 | -1.46719 | 9677 ft | 317 kts | 305° |
| 2026-04-30 07:46 | 52.98140 | -1.49708 | 10554 ft | 319 kts | 304° |
| 2026-04-30 07:47 | 52.99447 | -1.52809 | 10989 ft | 341 kts | 304° |
| 2026-04-30 07:47 | 53.00849 | -1.56153 | 11345 ft | 361 kts | 304° |
| 2026-04-30 07:47 | 53.02278 | -1.59566 | 12091 ft | 366 kts | 304° |
| 2026-04-30 07:47 | 53.03738 | -1.63049 | 12935 ft | 369 kts | 304° |
| 2026-04-30 07:48 | 53.05181 | -1.66585 | 13693 ft | 373 kts | 299° |
| 2026-04-30 07:48 | 53.06141 | -1.70587 | 14408 ft | 374 kts | 283° |
| 2026-04-30 07:48 | 53.06819 | -1.74776 | 15208 ft | 377 kts | 283° |
| 2026-04-30 07:48 | 53.07499 | -1.78990 | 15932 ft | 381 kts | 283° |
| 2026-04-30 07:49 | 53.08200 | -1.83283 | 16608 ft | 386 kts | 283° |
| 2026-04-30 07:49 | 53.08916 | -1.87610 | 17311 ft | 390 kts | 283° |
| 2026-04-30 07:49 | 53.09644 | -1.91973 | 18015 ft | 393 kts | 283° |
| 2026-04-30 07:49 | 53.10382 | -1.96371 | 18693 ft | 396 kts | 283° |
| 2026-04-30 07:50 | 53.11125 | -2.00810 | 19348 ft | 400 kts | 283° |
| 2026-04-30 07:50 | 53.11874 | -2.05288 | 20003 ft | 403 kts | 283° |
| 2026-04-30 07:50 | 53.12626 | -2.09792 | 20636 ft | 405 kts | 283° |
| 2026-04-30 07:50 | 53.13382 | -2.14327 | 21256 ft | 408 kts | 283° |
| 2026-04-30 07:51 | 53.14153 | -2.18897 | 21839 ft | 411 kts | 285° |
| 2026-04-30 07:51 | 53.15202 | -2.23362 | 22415 ft | 416 kts | 294° |
| 2026-04-30 07:51 | 53.16496 | -2.27669 | 23099 ft | 415 kts | 296° |
| 2026-04-30 07:51 | 53.17816 | -2.31929 | 23838 ft | 413 kts | 296° |
| 2026-04-30 07:52 | 53.19131 | -2.36191 | 24193 ft | 413 kts | 295° |
| 2026-04-30 07:52 | 53.20425 | -2.40447 | 24292 ft | 412 kts | 295° |
| 2026-04-30 07:52 | 53.21704 | -2.44720 | 24290 ft | 410 kts | 295° |
| 2026-04-30 07:52 | 53.22971 | -2.48990 | 24300 ft | 410 kts | 295° |
| 2026-04-30 07:53 | 53.24214 | -2.53202 | 24302 ft | 411 kts | 295° |
| 2026-04-30 07:53 | 53.25491 | -2.57541 | 24303 ft | 412 kts | 295° |
| 2026-04-30 07:53 | 53.26756 | -2.61839 | 24304 ft | 412 kts | 295° |
| 2026-04-30 07:53 | 53.28002 | -2.66079 | 24303 ft | 412 kts | 295° |
| 2026-04-30 07:54 | 53.29373 | -2.70258 | 24292 ft | 414 kts | 304° |
| 2026-04-30 07:54 | 53.31227 | -2.73923 | 24299 ft | 415 kts | 316° |
| 2026-04-30 07:54 | 53.33468 | -2.76941 | 24290 ft | 410 kts | 328° |
| 2026-04-30 07:54 | 53.35911 | -2.79317 | 24293 ft | 403 kts | 332° |
| 2026-04-30 07:55 | 53.38356 | -2.81578 | 24289 ft | 401 kts | 332° |
| 2026-04-30 07:55 | 53.40800 | -2.83850 | 24299 ft | 402 kts | 331° |
| 2026-04-30 07:55 | 53.43232 | -2.86162 | 24293 ft | 402 kts | 330° |
| 2026-04-30 07:55 | 53.45659 | -2.88504 | 24295 ft | 402 kts | 330° |
| 2026-04-30 07:56 | 53.48081 | -2.90864 | 24297 ft | 402 kts | 329° |
| 2026-04-30 07:56 | 53.50450 | -2.93377 | 24304 ft | 403 kts | 327° |
| 2026-04-30 07:56 | 53.52788 | -2.95997 | 24300 ft | 403 kts | 326° |
| 2026-04-30 07:56 | 53.55120 | -2.98619 | 24299 ft | 403 kts | 327° |
| 2026-04-30 07:57 | 53.57460 | -3.01220 | 24292 ft | 403 kts | 327° |
| 2026-04-30 07:57 | 53.59807 | -3.03816 | 24292 ft | 403 kts | 327° |
| 2026-04-30 07:57 | 53.62154 | -3.06413 | 24293 ft | 403 kts | 327° |
| 2026-04-30 07:57 | 53.64499 | -3.09014 | 24296 ft | 403 kts | 327° |
| 2026-04-30 07:58 | 53.66806 | -3.11577 | 24294 ft | 403 kts | 327° |
| 2026-04-30 07:58 | 53.69150 | -3.14184 | 24295 ft | 403 kts | 327° |
| 2026-04-30 07:58 | 53.71452 | -3.16864 | 24290 ft | 403 kts | 321° |
| 2026-04-30 07:58 | 53.73486 | -3.20131 | 24300 ft | 402 kts | 310° |
| 2026-04-30 07:59 | 53.75148 | -3.23904 | 24294 ft | 401 kts | 300° |
| 2026-04-30 07:59 | 53.76593 | -3.27915 | 24306 ft | 400 kts | 299° |
| 2026-04-30 07:59 | 53.77835 | -3.31460 | 24296 ft | 401 kts | 299° |
| 2026-04-30 08:00 | 53.80680 | -3.39510 | 24296 ft | 402 kts | 299° |
| 2026-04-30 08:00 | 53.82134 | -3.43558 | 24287 ft | 403 kts | 300° |
| 2026-04-30 08:00 | 53.83588 | -3.47595 | 24280 ft | 403 kts | 300° |
| 2026-04-30 08:00 | 53.85043 | -3.51651 | 24282 ft | 403 kts | 299° |
| 2026-04-30 08:01 | 53.86490 | -3.55708 | 24285 ft | 403 kts | 299° |
| 2026-04-30 08:01 | 53.87924 | -3.59740 | 24285 ft | 404 kts | 299° |
| 2026-04-30 08:01 | 53.89351 | -3.63763 | 24283 ft | 404 kts | 299° |
| 2026-04-30 08:01 | 53.90794 | -3.67839 | 24278 ft | 404 kts | 299° |
| 2026-04-30 08:02 | 53.93669 | -3.75969 | 24278 ft | 404 kts | 299° |
| 2026-04-30 08:02 | 53.95072 | -3.80076 | 24271 ft | 403 kts | 294° |
| 2026-04-30 08:03 | 53.96679 | -3.89031 | 24283 ft | 395 kts | 275° |
| 2026-04-30 08:03 | 53.97439 | -3.98225 | 24271 ft | 395 kts | 274° |
| 2026-04-30 08:03 | 53.97821 | -4.02852 | 24267 ft | 395 kts | 275° |
| 2026-04-30 08:04 | 53.98218 | -4.07466 | 24266 ft | 395 kts | 275° |
| 2026-04-30 08:04 | 53.98624 | -4.12090 | 24267 ft | 395 kts | 275° |
| 2026-04-30 08:04 | 53.99057 | -4.16706 | 24265 ft | 396 kts | 279° |
| 2026-04-30 08:04 | 53.99877 | -4.21194 | 24266 ft | 400 kts | 290° |
| 2026-04-30 08:05 | 54.01144 | -4.25420 | 24267 ft | 403 kts | 301° |
| 2026-04-30 08:05 | 54.02760 | -4.29333 | 24276 ft | 404 kts | 304° |
| 2026-04-30 08:05 | 54.04426 | -4.33182 | 24266 ft | 404 kts | 304° |
| 2026-04-30 08:05 | 54.06079 | -4.37048 | 24264 ft | 404 kts | 304° |
| 2026-04-30 08:06 | 54.07711 | -4.40940 | 24259 ft | 402 kts | 303° |
| 2026-04-30 08:06 | 54.09305 | -4.44782 | 24110 ft | 395 kts | 303° |
| 2026-04-30 08:06 | 54.10866 | -4.48590 | 23851 ft | 390 kts | 303° |
| 2026-04-30 08:06 | 54.12414 | -4.52385 | 23478 ft | 388 kts | 303° |
| 2026-04-30 08:07 | 54.13947 | -4.56143 | 23125 ft | 385 kts | 302° |
| 2026-04-30 08:07 | 54.15476 | -4.59893 | 22748 ft | 383 kts | 302° |
| 2026-04-30 08:07 | 54.16991 | -4.63610 | 22396 ft | 380 kts | 302° |
| 2026-04-30 08:07 | 54.18501 | -4.67310 | 22021 ft | 378 kts | 302° |
| 2026-04-30 08:08 | 54.19987 | -4.70942 | 21657 ft | 376 kts | 302° |
| 2026-04-30 08:08 | 54.21501 | -4.74646 | 21284 ft | 375 kts | 302° |
| 2026-04-30 08:08 | 54.22967 | -4.78238 | 20934 ft | 372 kts | 302° |
| 2026-04-30 08:08 | 54.24442 | -4.81859 | 20576 ft | 370 kts | 302° |
| 2026-04-30 08:09 | 54.25925 | -4.85508 | 20203 ft | 368 kts | 302° |
| 2026-04-30 08:09 | 54.27361 | -4.89049 | 19850 ft | 366 kts | 302° |
| 2026-04-30 08:09 | 54.28805 | -4.92614 | 19497 ft | 364 kts | 302° |
| 2026-04-30 08:09 | 54.30240 | -4.96166 | 19142 ft | 362 kts | 302° |
| 2026-04-30 08:10 | 54.31666 | -4.99698 | 18791 ft | 360 kts | 302° |
| 2026-04-30 08:10 | 54.33082 | -5.03210 | 18446 ft | 358 kts | 302° |
| 2026-04-30 08:10 | 54.34491 | -5.06711 | 18099 ft | 356 kts | 301° |
| 2026-04-30 08:10 | 54.35893 | -5.10198 | 17752 ft | 353 kts | 301° |
| 2026-04-30 08:11 | 54.37284 | -5.13665 | 17420 ft | 352 kts | 301° |
| 2026-04-30 08:11 | 54.38665 | -5.17112 | 17063 ft | 350 kts | 301° |
| 2026-04-30 08:11 | 54.40038 | -5.20546 | 16727 ft | 348 kts | 302° |
| 2026-04-30 08:11 | 54.41406 | -5.23968 | 16386 ft | 347 kts | 302° |
| 2026-04-30 08:12 | 54.42767 | -5.27375 | 16046 ft | 345 kts | 302° |
| 2026-04-30 08:12 | 54.44121 | -5.30767 | 15704 ft | 343 kts | 302° |
| 2026-04-30 08:12 | 54.45493 | -5.34100 | 15366 ft | 343 kts | 307° |
| 2026-04-30 08:12 | 54.47106 | -5.37117 | 15031 ft | 342 kts | 314° |
| 2026-04-30 08:13 | 54.48794 | -5.40000 | 14635 ft | 341 kts | 314° |
| 2026-04-30 08:13 | 54.50461 | -5.42879 | 14040 ft | 340 kts | 311° |
| 2026-04-30 08:13 | 54.51715 | -5.46245 | 13512 ft | 331 kts | 286° |
| 2026-04-30 08:13 | 54.52211 | -5.49925 | 13290 ft | 312 kts | 274° |
| 2026-04-30 08:14 | 54.52469 | -5.53598 | 12841 ft | 308 kts | 271° |
| 2026-04-30 08:14 | 54.52682 | -5.57279 | 12280 ft | 310 kts | 271° |
| 2026-04-30 08:14 | 54.52888 | -5.60964 | 11798 ft | 309 kts | 271° |
| 2026-04-30 08:14 | 54.53098 | -5.64606 | 11344 ft | 306 kts | 271° |
| 2026-04-30 08:15 | 54.53314 | -5.68252 | 10913 ft | 303 kts | 271° |
| 2026-04-30 08:15 | 54.53532 | -5.71836 | 10471 ft | 300 kts | 272° |
| 2026-04-30 08:15 | 54.53750 | -5.75392 | 10030 ft | 297 kts | 272° |
| 2026-04-30 08:15 | 54.53967 | -5.78912 | 9608 ft | 294 kts | 272° |
| 2026-04-30 08:16 | 54.54181 | -5.82394 | 9205 ft | 290 kts | 272° |
| 2026-04-30 08:16 | 54.54393 | -5.85836 | 8767 ft | 288 kts | 272° |
| 2026-04-30 08:16 | 54.54603 | -5.89256 | 8328 ft | 286 kts | 272° |
| 2026-04-30 08:16 | 54.54811 | -5.92652 | 7877 ft | 285 kts | 272° |
| 2026-04-30 08:17 | 54.55017 | -5.96030 | 7466 ft | 282 kts | 272° |
| 2026-04-30 08:17 | 54.55220 | -5.99380 | 7037 ft | 280 kts | 272° |
| 2026-04-30 08:17 | 54.55419 | -6.02706 | 6595 ft | 279 kts | 271° |
| 2026-04-30 08:17 | 54.55616 | -6.06021 | 6169 ft | 277 kts | 271° |
| 2026-04-30 08:18 | 54.55812 | -6.09313 | 5758 ft | 275 kts | 271° |
| 2026-04-30 08:18 | 54.56005 | -6.12571 | 5365 ft | 272 kts | 271° |
| 2026-04-30 08:18 | 54.56216 | -6.15764 | 5105 ft | 264 kts | 272° |
| 2026-04-30 08:18 | 54.56402 | -6.18881 | 4844 ft | 257 kts | 271° |
| 2026-04-30 08:19 | 54.56574 | -6.21918 | 4602 ft | 251 kts | 271° |
| 2026-04-30 08:19 | 54.56742 | -6.24883 | 4334 ft | 246 kts | 271° |
| 2026-04-30 08:19 | 54.56910 | -6.27789 | 4093 ft | 241 kts | 271° |
| 2026-04-30 08:19 | 54.57076 | -6.30588 | 4034 ft | 228 kts | 271° |
| 2026-04-30 08:20 | 54.57231 | -6.33214 | 3959 ft | 214 kts | 270° |
| 2026-04-30 08:20 | 54.57374 | -6.35695 | 3841 ft | 203 kts | 271° |
| 2026-04-30 08:20 | 54.57848 | -6.37985 | 3541 ft | 208 kts | 310° |
| 2026-04-30 08:20 | 54.59040 | -6.39208 | 3234 ft | 192 kts | 358° |
| 2026-04-30 08:21 | 54.60145 | -6.38761 | 2985 ft | 150 kts | 54° |
| 2026-04-30 08:21 | 54.60765 | -6.37462 | 2661 ft | 132 kts | 70° |
| 2026-04-30 08:21 | 54.60929 | -6.35971 | 2147 ft | 128 kts | 87° |
| 2026-04-30 08:21 | 54.61059 | -6.34403 | 1523 ft | 137 kts | 81° |
| 2026-04-30 08:22 | 54.61228 | -6.32804 | 998 ft | 137 kts | 79° |
| 2026-04-30 08:22 | 54.61532 | -6.31199 | 382 ft | 144 kts | 68° |
| 2026-04-30 08:22 | 54.61909 | -6.29805 | 643 ft | 112 kts | 69° |
| 2026-04-30 08:22 | 54.62146 | -6.28481 | 1044 ft | 132 kts | 82° |
| 2026-04-30 08:23 | 54.62139 | -6.26682 | 1320 ft | 166 kts | 96° |
| 2026-04-30 08:23 | 54.61858 | -6.24553 | 1645 ft | 194 kts | 110° |
| 2026-04-30 08:23 | 54.61228 | -6.22423 | 2188 ft | 203 kts | 123° |
| 2026-04-30 08:23 | 54.61104 | -6.22118 | 2298 ft | 201 kts | 126° |